createdAt,value
2023-04-24T11:40:12.899Z,9.60
2023-04-24T11:42:41.968Z,9.60
2023-04-24T11:45:13.855Z,9.70
2023-04-24T11:47:40.962Z,9.70
2023-04-24T11:50:10.300Z,9.80
2023-04-24T11:52:44.003Z,9.80
2023-04-24T11:55:17.021Z,9.80
2023-04-24T11:57:45.551Z,9.80
2023-04-24T12:00:19.803Z,9.90
2023-04-24T12:02:46.999Z,9.90
2023-04-24T12:05:25.279Z,10.00
2023-04-24T12:07:53.002Z,9.90
2023-04-24T12:10:23.490Z,9.80
2023-04-24T12:12:52.274Z,9.80
2023-04-24T12:15:20.513Z,9.90
2023-04-24T12:17:47.834Z,10.00
2023-04-24T12:20:15.388Z,10.10
2023-04-24T12:22:56.628Z,10.00
2023-04-24T12:25:28.461Z,10.00
2023-04-24T12:28:16.095Z,9.80
2023-04-24T12:30:49.905Z,9.80
2023-04-24T12:33:21.182Z,9.80
2023-04-24T12:35:49.399Z,10.00
2023-04-24T12:38:18.970Z,10.10
2023-04-24T12:40:45.855Z,10.40
2023-04-24T12:43:21.932Z,10.70
2023-04-24T12:45:49.808Z,11.10
2023-04-24T12:48:16.646Z,11.50
2023-04-24T12:50:46.535Z,11.70
2023-04-24T12:53:13.934Z,11.80
2023-04-24T12:55:41.228Z,11.70
2023-04-24T12:58:07.823Z,11.60
2023-04-24T13:00:34.586Z,11.50
2023-04-24T13:03:02.776Z,11.30
2023-04-24T13:05:30.158Z,11.20
2023-04-24T13:07:56.768Z,11.10
2023-04-24T13:10:23.727Z,11.10
2023-04-24T13:12:50.707Z,10.80
2023-04-24T13:15:17.554Z,10.80
2023-04-24T13:17:44.246Z,10.70
2023-04-24T13:20:11.212Z,10.70
2023-04-24T13:22:40.526Z,10.80
2023-04-24T13:25:08.205Z,10.80
2023-04-24T13:27:34.944Z,11.00
2023-04-24T13:30:01.799Z,11.20
2023-04-24T13:32:29.622Z,11.30
2023-04-24T13:34:57.329Z,11.30
2023-04-24T13:37:24.998Z,11.40
2023-04-24T13:39:52.480Z,11.20
2023-04-24T13:42:19.873Z,11.20
2023-04-24T13:44:46.538Z,11.00
2023-04-24T13:47:13.308Z,11.00
2023-04-24T13:49:39.998Z,11.00
2023-04-24T13:52:06.610Z,11.00
2023-04-24T13:54:33.735Z,11.00
2023-04-24T13:57:01.438Z,10.90
2023-04-24T13:59:28.133Z,10.90
2023-04-24T14:01:54.815Z,10.90
2023-04-24T14:04:21.927Z,10.90
2023-04-24T14:06:48.841Z,10.90
2023-04-24T14:09:15.813Z,10.90
2023-04-24T14:11:43.103Z,10.90
2023-04-24T14:14:10.227Z,10.90
2023-04-24T14:16:37.026Z,11.00
2023-04-24T14:19:03.795Z,11.00
2023-04-24T14:21:31.064Z,11.00
2023-04-24T14:23:57.729Z,11.00
2023-04-24T14:26:25.872Z,11.00
2023-04-24T14:28:57.990Z,11.10
2023-04-24T14:31:30.535Z,11.30
2023-04-24T14:33:57.355Z,11.50
2023-04-24T14:36:24.179Z,11.60
2023-04-24T14:38:52.012Z,11.70
2023-04-24T14:41:18.690Z,11.80
2023-04-24T14:43:45.462Z,11.90
2023-04-24T14:46:12.289Z,12.00
2023-04-24T14:48:38.946Z,12.00
2023-04-24T14:51:06.229Z,12.00
2023-04-24T14:53:32.911Z,12.00
2023-04-24T14:55:59.537Z,11.80
2023-04-24T14:58:26.276Z,11.70
2023-04-24T15:00:55.306Z,11.50
2023-04-24T15:03:23.062Z,11.40
2023-04-24T15:05:50.156Z,11.30
2023-04-24T15:08:16.988Z,11.20
2023-04-24T15:10:43.881Z,11.10
2023-04-24T15:13:13.122Z,11.00
2023-04-24T15:15:39.873Z,10.90
2023-04-24T15:18:06.887Z,10.70
2023-04-24T15:20:35.525Z,10.50
2023-04-24T15:23:03.329Z,10.50
2023-04-24T15:25:30.020Z,10.40
2023-04-24T15:27:56.672Z,10.30
2023-04-24T15:30:23.526Z,10.30
2023-04-24T15:32:50.286Z,10.30
2023-04-24T15:35:17.168Z,10.30
2023-04-24T15:37:43.985Z,10.30
2023-04-24T15:40:14.174Z,10.40
2023-04-24T15:42:41.924Z,10.40
2023-04-24T15:45:09.483Z,10.70
2023-04-24T15:47:36.518Z,11.00
2023-04-24T15:50:09.176Z,11.10
2023-04-24T15:52:36.129Z,11.10
2023-04-24T15:55:05.736Z,11.10
2023-04-24T15:57:32.589Z,11.00
2023-04-24T15:59:59.392Z,11.00
2023-04-24T16:02:27.741Z,10.90
2023-04-24T16:04:56.481Z,11.00
2023-04-24T16:07:23.263Z,11.00
2023-04-24T16:09:49.962Z,11.00
2023-04-24T16:12:16.604Z,11.20
2023-04-24T16:14:43.417Z,11.20
2023-04-24T16:17:10.271Z,11.10
2023-04-24T16:19:37.297Z,11.20
2023-04-24T16:22:04.797Z,11.10
2023-04-24T16:24:31.435Z,11.10
2023-04-24T16:26:58.107Z,11.30
2023-04-24T16:29:24.898Z,11.50
2023-04-24T16:31:51.891Z,11.60
2023-04-24T16:34:18.738Z,11.50
2023-04-24T16:36:45.461Z,11.50
2023-04-24T16:39:12.827Z,11.40
2023-04-24T16:41:40.243Z,11.30
2023-04-24T16:44:06.979Z,11.30
2023-04-24T16:46:34.239Z,11.30
2023-04-24T16:49:00.927Z,11.20
2023-04-24T16:51:27.779Z,11.30
2023-04-24T16:53:54.631Z,11.20
2023-04-24T16:56:21.256Z,11.10
2023-04-24T16:58:48.175Z,11.10
2023-04-24T17:01:14.940Z,11.00
2023-04-24T17:03:42.042Z,11.00
2023-04-24T17:06:08.817Z,10.90
2023-04-24T17:08:35.518Z,10.90
2023-04-24T17:11:02.229Z,10.90
2023-04-24T17:13:28.871Z,10.80
2023-04-24T17:15:55.621Z,10.80
2023-04-24T17:18:22.364Z,10.70
2023-04-24T17:20:49.054Z,10.70
2023-04-24T17:23:15.760Z,10.60
2023-04-24T17:25:42.785Z,10.60
2023-04-24T17:28:24.009Z,10.60
2023-04-24T17:30:50.754Z,10.50
2023-04-24T17:33:17.335Z,10.50
2023-04-24T17:38:31.743Z,10.20
2023-04-24T17:41:00.140Z,10.10
2023-04-24T17:43:27.378Z,10.10
2023-04-24T17:45:59.320Z,10.00
2023-04-24T17:48:26.784Z,10.10
2023-04-24T17:50:54.130Z,10.10
2023-04-24T17:53:21.619Z,10.10
2023-04-24T17:55:48.789Z,10.10
2023-04-24T17:58:15.822Z,10.10
2023-04-24T18:00:43.669Z,10.10
2023-04-24T18:03:10.833Z,10.10
2023-04-24T18:05:38.841Z,10.10
2023-04-24T18:08:06.035Z,10.20
2023-04-24T18:10:36.072Z,10.10
2023-04-24T18:13:03.735Z,10.10
2023-04-24T18:15:30.704Z,10.10
2023-04-24T18:18:02.836Z,10.00
2023-04-24T18:20:29.531Z,10.00
2023-04-24T18:22:56.218Z,10.00
2023-04-24T18:25:27.005Z,10.00
2023-04-24T18:27:54.826Z,9.90
2023-04-24T18:30:24.067Z,9.80
2023-04-24T18:32:53.632Z,9.70
2023-04-24T18:35:21.237Z,9.70
2023-04-24T18:37:48.278Z,9.60
2023-04-24T18:40:15.631Z,9.60
2023-04-24T18:42:42.676Z,9.50
2023-04-24T18:45:12.372Z,9.40
2023-04-24T18:47:40.680Z,9.40
2023-04-24T18:50:07.947Z,9.40
2023-04-24T18:52:34.687Z,9.30
2023-04-24T18:55:01.956Z,9.30
2023-04-24T18:57:28.658Z,9.20
2023-04-24T18:59:55.313Z,9.20
2023-04-24T19:02:22.117Z,9.10
2023-04-24T19:04:48.864Z,9.10
2023-04-24T19:07:15.516Z,9.00
2023-04-24T19:09:42.130Z,9.00
2023-04-24T19:12:08.819Z,9.00
2023-04-24T19:14:35.549Z,9.00
2023-04-24T19:17:02.208Z,8.90
2023-04-24T19:19:29.910Z,8.90
2023-04-24T19:21:56.623Z,8.80
2023-04-24T19:24:24.493Z,8.80
2023-04-24T19:26:51.267Z,8.80
2023-04-24T19:29:17.853Z,8.80
2023-04-24T19:31:44.635Z,8.80
2023-04-24T19:34:11.529Z,8.80
2023-04-24T19:36:38.296Z,8.80
2023-04-24T19:39:04.985Z,8.70
2023-04-24T19:41:31.610Z,8.70
2023-04-24T19:43:58.269Z,8.70
2023-04-24T19:46:25.034Z,8.70
2023-04-24T19:48:51.980Z,8.70
2023-04-24T19:51:18.983Z,8.70
2023-04-24T19:53:45.880Z,8.70
2023-04-24T19:56:12.896Z,8.60
2023-04-24T19:58:39.752Z,8.60
2023-04-24T20:01:06.491Z,8.70
2023-04-24T20:03:34.586Z,8.70
2023-04-24T20:06:01.901Z,8.70
2023-04-24T20:08:28.603Z,8.70
2023-04-24T20:10:57.870Z,8.60
2023-04-24T20:13:27.503Z,8.60
2023-04-24T20:15:54.312Z,8.50
2023-04-24T20:18:21.381Z,8.50
2023-04-24T20:20:48.236Z,8.40
2023-04-24T20:23:15.125Z,8.50
2023-04-24T20:25:41.780Z,8.50
2023-04-24T20:28:08.412Z,8.60
2023-04-24T20:30:35.748Z,8.60
2023-04-24T20:33:03.220Z,8.70
2023-04-24T20:35:31.356Z,8.70
